createdAt,value
2018-07-22T00:00:34.742Z,369.00
2018-07-22T00:01:34.779Z,339.60
2018-07-22T00:02:34.833Z,472.80
2018-07-22T00:03:34.869Z,521.90
2018-07-22T00:04:34.929Z,424.30
2018-07-22T00:05:34.977Z,418.70
2018-07-22T00:06:35.002Z,422.80
2018-07-22T00:07:35.050Z,435.40
2018-07-22T00:08:35.101Z,375.90
2018-07-22T00:09:35.111Z,498.70
2018-07-22T00:10:35.171Z,587.20
2018-07-22T00:11:35.204Z,439.60
2018-07-22T00:12:35.291Z,442.80
2018-07-22T00:13:35.295Z,435.20
2018-07-22T00:14:35.370Z,461.50
2018-07-22T00:15:35.388Z,477.70
2018-07-22T00:16:35.412Z,551.10
2018-07-22T00:17:35.460Z,467.00
2018-07-22T00:18:35.515Z,438.60
2018-07-22T00:19:35.531Z,433.00
2018-07-22T00:20:35.576Z,425.50
2018-07-22T00:21:35.699Z,368.10
2018-07-22T00:22:35.672Z,394.20
2018-07-22T00:23:35.749Z,421.60
2018-07-22T00:24:35.762Z,472.30
2018-07-22T00:25:35.784Z,389.60
2018-07-22T00:26:35.903Z,360.70
2018-07-22T00:27:35.891Z,463.20
2018-07-22T00:28:35.928Z,382.90
2018-07-22T00:29:35.993Z,383.30
2018-07-22T00:30:36.023Z,355.20
2018-07-22T00:31:36.066Z,323.10
2018-07-22T00:32:36.088Z,623.90
2018-07-22T00:33:36.135Z,343.80
2018-07-22T00:34:36.203Z,485.40
2018-07-22T00:35:36.268Z,349.00
2018-07-22T00:36:36.342Z,350.70
2018-07-22T00:37:36.326Z,338.10
2018-07-22T00:38:36.355Z,361.00
2018-07-22T00:39:36.418Z,324.90
2018-07-22T00:40:36.443Z,335.80
2018-07-22T00:41:36.511Z,368.50
2018-07-22T00:42:36.581Z,326.80
2018-07-22T00:43:36.586Z,338.60
2018-07-22T00:44:36.642Z,321.20
2018-07-22T00:45:36.666Z,306.00
2018-07-22T00:46:36.718Z,418.40
2018-07-22T00:47:36.762Z,336.60
2018-07-22T00:48:36.807Z,313.90
2018-07-22T00:49:36.851Z,299.70
2018-07-22T00:50:36.892Z,293.40
2018-07-22T00:51:36.909Z,368.90
2018-07-22T00:52:36.981Z,333.80
2018-07-22T00:53:37.059Z,308.00
2018-07-22T00:54:37.032Z,313.40
2018-07-22T00:55:37.097Z,304.00
2018-07-22T00:56:37.132Z,301.80
2018-07-22T00:57:37.179Z,395.60
2018-07-22T00:58:37.227Z,378.30
2018-07-22T00:59:37.261Z,321.70
2018-07-22T01:00:37.352Z,312.30
2018-07-22T01:01:37.354Z,467.00
2018-07-22T01:02:37.378Z,373.70
2018-07-22T01:03:37.462Z,375.20
2018-07-22T01:04:37.461Z,541.40
2018-07-22T01:05:37.491Z,376.80
2018-07-22T01:06:37.576Z,346.70
2018-07-22T01:07:37.614Z,326.80
2018-07-22T01:08:37.643Z,364.60
2018-07-22T01:09:37.751Z,325.30
2018-07-22T01:10:37.773Z,336.10
2018-07-22T01:11:37.768Z,330.50
2018-07-22T01:12:37.830Z,319.10
2018-07-22T01:13:37.858Z,315.20
2018-07-22T01:14:37.919Z,300.20
2018-07-22T01:15:38.005Z,446.50
2018-07-22T01:16:38.004Z,321.80
2018-07-22T01:17:38.033Z,340.40
2018-07-22T01:18:38.072Z,335.50
2018-07-22T01:19:38.363Z,324.90
2018-07-22T01:20:38.180Z,327.40
2018-07-22T01:21:38.208Z,312.20
2018-07-22T01:22:38.263Z,328.90
2018-07-22T01:23:38.284Z,345.10
2018-07-22T01:24:38.333Z,350.90
2018-07-22T01:25:38.373Z,354.10
2018-07-22T01:26:38.406Z,369.10
2018-07-22T01:27:38.486Z,359.30
2018-07-22T01:28:38.509Z,347.80
2018-07-22T01:29:38.547Z,335.70
2018-07-22T01:30:39.191Z,336.90
2018-07-22T01:31:38.638Z,338.60
2018-07-22T01:32:38.698Z,367.50
2018-07-22T01:33:38.737Z,340.50
2018-07-22T01:34:38.780Z,331.60
2018-07-22T01:35:38.828Z,329.60
2018-07-22T01:36:38.878Z,336.60
2018-07-22T01:37:38.889Z,408.10
2018-07-22T01:38:38.917Z,352.60
2018-07-22T01:39:38.978Z,587.40
2018-07-22T01:40:39.040Z,265.10
2018-07-22T01:41:39.054Z,359.50
2018-07-22T01:42:39.104Z,264.00
2018-07-22T01:43:39.155Z,251.10
2018-07-22T01:44:39.196Z,247.30
2018-07-22T01:45:39.284Z,280.20
2018-07-22T01:46:39.286Z,246.50
2018-07-22T01:47:39.375Z,231.00
2018-07-22T01:48:39.376Z,288.20
2018-07-22T01:49:39.468Z,259.50
2018-07-22T01:50:39.448Z,236.10
2018-07-22T01:51:39.524Z,241.10
2018-07-22T01:52:39.553Z,245.10
2018-07-22T01:53:39.565Z,232.60
2018-07-22T01:54:39.611Z,223.50
2018-07-22T01:55:39.877Z,226.40
2018-07-22T01:56:39.708Z,217.90
2018-07-22T01:57:39.754Z,233.20
2018-07-22T01:58:39.797Z,235.60
2018-07-22T01:59:39.833Z,261.50
2018-07-22T02:00:39.923Z,233.00
2018-07-22T02:01:39.970Z,241.30
2018-07-22T02:02:40.010Z,250.00
2018-07-22T02:03:40.017Z,246.40
2018-07-22T02:04:40.077Z,231.00
2018-07-22T02:05:40.100Z,243.40
2018-07-22T02:06:40.138Z,281.00
2018-07-22T02:07:40.166Z,244.60
2018-07-22T02:08:40.266Z,247.10
2018-07-22T02:09:40.256Z,238.20
2018-07-22T02:10:40.362Z,250.60
2018-07-22T02:11:40.318Z,242.20
2018-07-22T02:12:40.402Z,247.00
2018-07-22T02:13:40.439Z,357.20
2018-07-22T02:14:40.467Z,242.20
2018-07-22T02:15:40.532Z,262.70
2018-07-22T02:16:40.738Z,289.70
2018-07-22T02:17:40.648Z,273.60
2018-07-22T02:18:40.645Z,376.30
2018-07-22T02:19:40.758Z,307.70
2018-07-22T02:20:40.716Z,268.70
2018-07-22T02:21:40.801Z,264.10
2018-07-22T02:22:40.827Z,250.40
2018-07-22T02:23:40.882Z,244.40
2018-07-22T02:24:40.900Z,294.50
2018-07-22T02:25:40.977Z,315.30
2018-07-22T02:26:40.987Z,295.60
2018-07-22T02:27:41.227Z,273.80
2018-07-22T02:28:41.075Z,288.20
2018-07-22T02:29:41.118Z,403.30
2018-07-22T02:30:41.160Z,283.50
2018-07-22T02:31:41.215Z,306.30
2018-07-22T02:32:41.222Z,287.50
2018-07-22T02:33:41.287Z,282.80
2018-07-22T02:34:41.391Z,274.40
2018-07-22T02:35:41.402Z,273.30
2018-07-22T02:36:41.434Z,287.20
2018-07-22T02:37:41.479Z,267.90
2018-07-22T02:38:41.524Z,269.60
2018-07-22T02:39:41.574Z,253.50
2018-07-22T02:40:41.631Z,215.20
2018-07-22T02:41:41.692Z,220.40
2018-07-22T02:42:41.682Z,228.30
2018-07-22T02:43:41.721Z,447.40
2018-07-22T02:44:41.755Z,213.30
2018-07-22T02:45:41.820Z,231.00
2018-07-22T02:46:41.873Z,228.80
2018-07-22T02:47:41.880Z,208.10
2018-07-22T02:48:41.934Z,214.00
2018-07-22T02:49:41.976Z,211.50
2018-07-22T02:50:42.035Z,209.80
2018-07-22T02:51:42.043Z,260.60
2018-07-22T02:52:42.095Z,228.90
2018-07-22T02:53:42.132Z,214.10
2018-07-22T02:54:42.208Z,441.30
2018-07-22T02:55:42.201Z,200.90
2018-07-22T02:56:42.283Z,215.00
2018-07-22T02:57:42.310Z,200.50
2018-07-22T02:58:42.358Z,201.00
2018-07-22T02:59:42.414Z,200.60
2018-07-22T03:00:42.431Z,205.40
2018-07-22T03:01:42.727Z,203.30
2018-07-22T03:02:42.533Z,191.10
2018-07-22T03:03:42.570Z,204.60
2018-07-22T03:04:42.595Z,202.00
2018-07-22T03:05:42.662Z,220.60
2018-07-22T03:06:42.710Z,202.20
2018-07-22T03:07:42.784Z,188.90
2018-07-22T03:08:42.797Z,207.00
2018-07-22T03:09:42.810Z,204.10
2018-07-22T03:10:42.875Z,202.50
2018-07-22T03:11:42.914Z,198.00
2018-07-22T03:12:43.163Z,209.60
2018-07-22T03:13:43.003Z,202.90
2018-07-22T03:14:43.071Z,204.50
2018-07-22T03:15:43.063Z,184.60
2018-07-22T03:16:43.116Z,193.10
2018-07-22T03:17:43.170Z,197.50
2018-07-22T03:18:43.221Z,170.00
2018-07-22T03:19:43.264Z,183.90
2018-07-22T03:20:43.292Z,172.90
2018-07-22T03:21:43.392Z,220.80
2018-07-22T03:22:43.374Z,173.20
2018-07-22T03:23:43.487Z,184.70
2018-07-22T03:24:43.467Z,178.00
2018-07-22T03:25:43.501Z,226.60
2018-07-22T03:26:43.559Z,193.60
2018-07-22T03:27:43.809Z,184.20
2018-07-22T03:28:43.648Z,179.70
2018-07-22T03:29:43.665Z,177.30
2018-07-22T03:30:43.745Z,184.40
2018-07-22T03:31:43.798Z,183.20
2018-07-22T03:32:43.814Z,187.80
2018-07-22T03:33:43.859Z,185.00
2018-07-22T03:34:43.925Z,190.70
2018-07-22T03:35:43.945Z,195.10
2018-07-22T03:36:43.990Z,214.50
2018-07-22T03:37:44.034Z,213.00
2018-07-22T03:38:44.109Z,215.70
2018-07-22T03:39:44.100Z,219.60
2018-07-22T03:40:44.154Z,265.90
2018-07-22T03:41:44.233Z,218.50
2018-07-22T03:42:44.267Z,254.50
2018-07-22T03:43:44.255Z,233.60
2018-07-22T03:44:44.331Z,232.90
2018-07-22T03:45:44.361Z,269.40
2018-07-22T03:46:44.419Z,220.70
2018-07-22T03:47:44.460Z,234.20
2018-07-22T03:48:44.490Z,363.00
2018-07-22T03:49:44.538Z,214.60
2018-07-22T03:50:44.576Z,216.80
2018-07-22T03:51:44.611Z,220.10
2018-07-22T03:52:44.655Z,194.10
2018-07-22T03:53:44.698Z,263.50
2018-07-22T03:54:44.758Z,329.40
2018-07-22T03:55:44.777Z,207.50
2018-07-22T03:56:44.863Z,190.30
2018-07-22T03:57:44.883Z,203.40
2018-07-22T03:58:44.910Z,228.20
2018-07-22T03:59:45.022Z,358.50
2018-07-22T04:00:44.989Z,198.10
2018-07-22T04:01:45.082Z,191.60
2018-07-22T04:02:45.088Z,237.60
2018-07-22T04:03:45.181Z,183.60
2018-07-22T04:04:45.188Z,191.10
2018-07-22T04:05:45.210Z,197.30
2018-07-22T04:06:45.299Z,184.40
2018-07-22T04:07:45.319Z,185.10
2018-07-22T04:08:45.389Z,185.60
2018-07-22T04:09:45.422Z,212.50
2018-07-22T04:10:45.491Z,198.50
2018-07-22T04:11:45.464Z,187.70
2018-07-22T04:12:45.538Z,181.70
2018-07-22T04:13:45.538Z,197.70
2018-07-22T04:14:45.597Z,209.50
2018-07-22T04:15:45.655Z,197.00
2018-07-22T04:16:45.667Z,212.70
2018-07-22T04:17:45.929Z,201.70
2018-07-22T04:18:45.767Z,256.00
2018-07-22T04:19:45.828Z,216.30
2018-07-22T04:20:45.840Z,204.20
2018-07-22T04:21:45.878Z,217.20
2018-07-22T04:22:45.922Z,483.70
2018-07-22T04:23:45.989Z,200.90
2018-07-22T04:24:46.025Z,197.40
2018-07-22T04:25:46.108Z,226.70
2018-07-22T04:26:46.105Z,203.40
2018-07-22T04:27:46.165Z,204.90
2018-07-22T04:28:46.427Z,196.90
2018-07-22T04:29:46.218Z,200.50
2018-07-22T04:30:46.329Z,200.60
2018-07-22T04:31:46.377Z,208.70
2018-07-22T04:32:46.364Z,562.90
2018-07-22T04:33:46.397Z,212.30
2018-07-22T04:34:46.474Z,187.90
2018-07-22T04:35:46.509Z,219.10
2018-07-22T04:36:46.530Z,183.50
2018-07-22T04:37:46.587Z,196.00
2018-07-22T04:38:46.616Z,190.60
2018-07-22T04:39:46.910Z,191.60
2018-07-22T04:40:46.735Z,191.50
2018-07-22T04:41:46.768Z,208.20
2018-07-22T04:42:46.806Z,179.60
2018-07-22T04:43:46.853Z,391.10
2018-07-22T04:44:46.892Z,189.90
2018-07-22T04:45:46.964Z,186.10
2018-07-22T04:46:46.974Z,187.70
2018-07-22T04:47:47.002Z,185.40
2018-07-22T04:48:47.072Z,169.70
2018-07-22T04:49:47.091Z,184.70
2018-07-22T04:50:47.120Z,191.80
2018-07-22T04:51:47.165Z,189.40
2018-07-22T04:52:47.246Z,190.00
2018-07-22T04:53:47.276Z,185.00
2018-07-22T04:54:47.514Z,201.10
2018-07-22T04:55:47.389Z,193.70
2018-07-22T04:56:47.405Z,190.40
2018-07-22T04:57:47.444Z,189.80
2018-07-22T04:58:47.544Z,192.30
2018-07-22T04:59:47.516Z,188.90
2018-07-22T05:00:47.556Z,175.50
2018-07-22T05:01:47.595Z,181.10
2018-07-22T05:02:47.661Z,186.50
2018-07-22T05:03:47.698Z,192.90
2018-07-22T05:04:47.745Z,191.10
2018-07-22T05:05:47.743Z,186.80
2018-07-22T05:06:47.865Z,193.90
2018-07-22T05:07:47.868Z,180.80
2018-07-22T05:08:47.918Z,184.70
2018-07-22T05:09:47.956Z,178.30
2018-07-22T05:10:47.980Z,186.50
2018-07-22T05:11:48.030Z,184.40
2018-07-22T05:12:48.084Z,178.60
2018-07-22T05:13:48.140Z,187.90
2018-07-22T05:14:48.160Z,174.70
2018-07-22T05:15:48.208Z,191.10
2018-07-22T05:16:48.314Z,187.50
2018-07-22T05:17:48.291Z,185.00
2018-07-22T05:18:48.328Z,187.90
2018-07-22T05:19:48.372Z,197.70
2018-07-22T05:20:48.435Z,184.90
2018-07-22T05:21:48.461Z,183.00
2018-07-22T05:22:48.512Z,172.90
2018-07-22T05:23:48.568Z,223.00
2018-07-22T05:24:48.599Z,186.80
2018-07-22T05:25:48.639Z,170.10
2018-07-22T05:26:48.733Z,170.00
2018-07-22T05:27:48.712Z,175.50
2018-07-22T05:28:48.766Z,167.90
2018-07-22T05:29:48.854Z,199.60
2018-07-22T05:30:48.844Z,181.80
2018-07-22T05:31:49.090Z,191.50
2018-07-22T05:32:48.918Z,178.10
2018-07-22T05:33:49.010Z,182.10
2018-07-22T05:34:49.033Z,179.10
2018-07-22T05:35:49.034Z,213.90
2018-07-22T05:36:49.139Z,167.40
2018-07-22T05:37:49.154Z,181.10
2018-07-22T05:38:49.176Z,189.60
2018-07-22T05:39:49.214Z,176.20
2018-07-22T05:40:49.281Z,220.90
2018-07-22T05:41:49.362Z,273.20
2018-07-22T05:42:49.363Z,176.00
2018-07-22T05:43:49.393Z,205.30
2018-07-22T05:44:49.434Z,175.60
2018-07-22T05:45:49.496Z,177.10
2018-07-22T05:46:49.530Z,171.30
2018-07-22T05:47:49.571Z,167.30
2018-07-22T05:48:49.644Z,174.30
2018-07-22T05:49:49.644Z,167.60
2018-07-22T05:50:49.692Z,173.80
2018-07-22T05:51:49.739Z,174.10
2018-07-22T05:52:49.797Z,168.70
2018-07-22T05:53:49.864Z,173.80
2018-07-22T05:54:49.911Z,180.10
2018-07-22T05:55:49.899Z,175.80
2018-07-22T05:56:49.956Z,170.50
2018-07-22T05:57:50.032Z,170.10
2018-07-22T05:58:50.297Z,170.10
2018-07-22T05:59:50.100Z,180.50
2018-07-22T06:00:50.116Z,180.50
2018-07-22T06:01:50.186Z,433.80
2018-07-22T06:02:50.210Z,185.60
2018-07-22T06:03:50.252Z,173.50
2018-07-22T06:04:50.300Z,200.10
2018-07-22T06:05:50.330Z,182.80
2018-07-22T06:06:50.375Z,228.60
2018-07-22T06:07:50.422Z,186.10
2018-07-22T06:08:50.476Z,176.30
2018-07-22T06:09:50.505Z,191.10
2018-07-22T06:10:50.574Z,178.90
2018-07-22T06:11:50.743Z,185.70
2018-07-22T06:12:50.639Z,190.20
2018-07-22T06:13:50.681Z,185.40
2018-07-22T06:14:50.936Z,261.50
2018-07-22T06:15:50.773Z,203.60
2018-07-22T06:16:50.816Z,209.00
2018-07-22T06:17:50.852Z,231.00
2018-07-22T06:18:50.916Z,212.10
2018-07-22T06:19:50.964Z,194.30
2018-07-22T06:20:50.990Z,212.20
2018-07-22T06:21:51.021Z,194.60
2018-07-22T06:22:51.108Z,186.50
2018-07-22T06:23:51.132Z,171.80
2018-07-22T06:24:51.183Z,178.50
2018-07-22T06:25:51.405Z,188.80
2018-07-22T06:26:51.220Z,195.30
2018-07-22T06:27:51.287Z,231.20
2018-07-22T06:28:51.318Z,186.60
2018-07-22T06:29:51.340Z,180.10
2018-07-22T06:30:51.409Z,169.60
2018-07-22T06:31:51.478Z,204.50
2018-07-22T06:32:51.458Z,196.20
2018-07-22T06:33:51.532Z,182.60
2018-07-22T06:34:51.555Z,214.60
2018-07-22T06:35:51.655Z,181.70
2018-07-22T06:36:51.879Z,182.50
2018-07-22T06:37:51.751Z,171.40
2018-07-22T06:38:51.761Z,166.70
2018-07-22T06:39:51.816Z,170.90
2018-07-22T06:40:51.848Z,167.10
2018-07-22T06:41:51.866Z,166.10
2018-07-22T06:42:51.921Z,155.80
2018-07-22T06:43:52.018Z,150.80
2018-07-22T06:44:52.024Z,199.80
2018-07-22T06:45:52.040Z,152.00
2018-07-22T06:46:52.091Z,159.30
2018-07-22T06:47:52.125Z,148.90
2018-07-22T06:48:52.393Z,162.20
2018-07-22T06:49:52.209Z,162.00
2018-07-22T06:50:52.289Z,157.50
2018-07-22T06:51:52.319Z,159.50
2018-07-22T06:52:52.331Z,166.60
2018-07-22T06:53:52.384Z,152.70
2018-07-22T06:54:52.480Z,174.20
2018-07-22T06:55:52.529Z,205.00
2018-07-22T06:56:52.514Z,176.80
2018-07-22T06:57:52.579Z,165.00
2018-07-22T06:58:52.591Z,157.80
2018-07-22T06:59:52.645Z,154.90
2018-07-22T07:00:53.012Z,152.50
2018-07-22T07:01:52.720Z,161.80
2018-07-22T07:02:52.791Z,220.80
2018-07-22T07:03:52.817Z,157.50
2018-07-22T07:04:52.942Z,154.70
2018-07-22T07:05:52.917Z,159.30
2018-07-22T07:06:52.915Z,162.30
2018-07-22T07:07:52.992Z,164.00
2018-07-22T07:08:53.070Z,157.30
2018-07-22T07:09:53.116Z,186.20
2018-07-22T07:10:53.139Z,154.40
2018-07-22T07:11:53.148Z,155.00
2018-07-22T07:12:53.239Z,166.70
2018-07-22T07:13:53.252Z,160.70
2018-07-22T07:14:53.293Z,169.00
2018-07-22T07:15:53.325Z,154.80
2018-07-22T07:16:53.351Z,175.20
2018-07-22T07:17:53.415Z,166.40
2018-07-22T07:18:53.460Z,157.50
2018-07-22T07:19:53.519Z,174.50
2018-07-22T07:20:53.575Z,230.50
2018-07-22T07:21:53.594Z,163.80
2018-07-22T07:22:53.607Z,158.40
2018-07-22T07:23:53.696Z,159.80
2018-07-22T07:24:53.701Z,155.00
2018-07-22T07:25:53.743Z,157.70
2018-07-22T07:26:53.819Z,155.60
2018-07-22T07:27:53.865Z,166.60
2018-07-22T07:28:53.870Z,148.30
2018-07-22T07:29:53.907Z,191.30
2018-07-22T07:30:54.195Z,152.90
2018-07-22T07:31:54.015Z,157.50
2018-07-22T07:32:54.040Z,187.80
2018-07-22T07:33:54.102Z,160.70
2018-07-22T07:34:54.129Z,158.30
2018-07-22T07:35:54.198Z,157.20
2018-07-22T07:36:54.203Z,163.80
2018-07-22T07:37:54.249Z,152.20
2018-07-22T07:38:54.277Z,151.60
2018-07-22T07:39:54.359Z,161.30
2018-07-22T07:40:54.391Z,146.20
2018-07-22T07:41:54.632Z,151.50
2018-07-22T07:42:54.449Z,226.50
2018-07-22T07:43:54.538Z,180.30
2018-07-22T07:44:54.557Z,321.30
2018-07-22T07:45:54.594Z,222.80
2018-07-22T07:46:54.622Z,152.60
2018-07-22T07:47:54.680Z,172.50
2018-07-22T07:48:54.718Z,158.90
2018-07-22T07:49:54.836Z,169.40
2018-07-22T07:50:54.836Z,154.40
2018-07-22T07:51:54.855Z,151.60
2018-07-22T07:52:55.082Z,149.60
2018-07-22T07:53:54.951Z,152.10
2018-07-22T07:54:54.986Z,154.50
2018-07-22T07:55:55.073Z,150.10
2018-07-22T07:56:55.052Z,168.30
2018-07-22T07:57:55.161Z,302.20
2018-07-22T07:58:55.145Z,160.20
2018-07-22T07:59:55.185Z,183.90
2018-07-22T08:00:55.245Z,157.30
2018-07-22T08:01:55.280Z,142.80
2018-07-22T08:02:55.352Z,153.50
2018-07-22T08:03:55.624Z,160.20
2018-07-22T08:04:55.397Z,153.00
2018-07-22T08:05:55.473Z,205.30
2018-07-22T08:06:55.496Z,156.00
2018-07-22T08:07:55.545Z,148.10
2018-07-22T08:08:55.569Z,148.90
2018-07-22T08:09:55.603Z,149.60
2018-07-22T08:10:55.679Z,148.70
2018-07-22T08:11:55.720Z,157.80
2018-07-22T08:12:55.742Z,159.60
2018-07-22T08:13:55.774Z,154.70
2018-07-22T08:14:56.078Z,150.50
2018-07-22T08:15:55.868Z,148.10
2018-07-22T08:16:55.930Z,150.70
2018-07-22T08:17:55.956Z,156.40
2018-07-22T08:18:56.440Z,150.40
2018-07-22T08:19:56.056Z,150.30
2018-07-22T08:20:56.071Z,147.00
2018-07-22T08:21:56.230Z,153.50
2018-07-22T08:22:56.141Z,190.00
2018-07-22T08:23:56.190Z,172.50
2018-07-22T08:24:56.278Z,168.10
2018-07-22T08:25:56.518Z,161.00
2018-07-22T08:26:56.343Z,179.00
2018-07-22T08:27:56.389Z,176.70
2018-07-22T08:28:56.422Z,181.20
2018-07-22T08:29:56.471Z,169.20
2018-07-22T08:30:56.505Z,178.10
2018-07-22T08:31:56.569Z,174.50
2018-07-22T08:32:56.608Z,247.80
2018-07-22T08:33:56.616Z,174.70
2018-07-22T08:34:56.724Z,148.10
2018-07-22T08:35:56.707Z,132.00
2018-07-22T08:36:57.014Z,343.80
2018-07-22T08:37:56.798Z,143.70
2018-07-22T08:38:56.878Z,132.60
2018-07-22T08:39:56.875Z,182.70
2018-07-22T08:40:56.920Z,130.20
2018-07-22T08:41:57.008Z,277.60
2018-07-22T08:42:57.020Z,151.20
2018-07-22T08:43:57.054Z,152.10
2018-07-22T08:44:57.100Z,961.40
2018-07-22T08:45:57.142Z,354.30
2018-07-22T08:46:57.200Z,389.70
2018-07-22T08:47:57.419Z,336.90
2018-07-22T08:48:57.282Z,712.70
2018-07-22T08:49:57.372Z,392.50
2018-07-22T08:50:57.360Z,427.90
2018-07-22T08:51:57.415Z,430.40
2018-07-22T08:52:57.450Z,407.10
2018-07-22T08:53:57.476Z,443.80
2018-07-22T08:54:57.509Z,446.00
2018-07-22T08:55:57.620Z,459.80
2018-07-22T08:56:57.610Z,427.80
2018-07-22T08:57:57.672Z,421.10
2018-07-22T08:58:57.757Z,521.40
2018-07-22T08:59:57.937Z,461.00
2018-07-22T09:00:57.770Z,457.40
2018-07-22T09:01:57.866Z,450.40
2018-07-22T09:02:57.850Z,459.20
2018-07-22T09:03:57.898Z,505.00
2018-07-22T09:04:57.963Z,436.60
2018-07-22T09:05:58.043Z,487.70
2018-07-22T09:06:58.016Z,471.70
2018-07-22T09:07:58.089Z,477.20
2018-07-22T09:08:58.111Z,483.90
2018-07-22T09:09:58.167Z,485.00
2018-07-22T09:10:58.262Z,496.90
2018-07-22T09:11:58.475Z,485.00
2018-07-22T09:12:58.295Z,476.50
2018-07-22T09:13:58.318Z,462.20
2018-07-22T09:14:58.362Z,426.00
2018-07-22T09:15:58.400Z,492.60
2018-07-22T09:16:58.460Z,471.40
2018-07-22T09:17:58.511Z,476.40
2018-07-22T09:18:58.563Z,445.30
2018-07-22T09:19:58.576Z,483.90
2018-07-22T09:20:58.610Z,473.50
2018-07-22T09:21:58.704Z,461.50
2018-07-22T09:22:58.722Z,441.20
2018-07-22T09:23:58.765Z,432.40
2018-07-22T09:24:58.836Z,429.20
2018-07-22T09:25:58.847Z,451.20
2018-07-22T09:26:58.952Z,452.00
2018-07-22T09:27:58.922Z,370.20
2018-07-22T09:28:58.966Z,431.70
2018-07-22T09:29:59.222Z,442.90
2018-07-22T09:30:59.032Z,400.90
2018-07-22T09:31:59.087Z,401.90
2018-07-22T09:32:59.140Z,497.00
2018-07-22T09:33:59.171Z,522.00
2018-07-22T09:34:59.244Z,438.70
2018-07-22T09:35:59.331Z,486.90
2018-07-22T09:36:59.283Z,473.20
2018-07-22T09:37:59.393Z,466.90
2018-07-22T09:38:59.370Z,460.40
2018-07-22T09:39:59.416Z,472.20
2018-07-22T09:40:59.681Z,465.90
2018-07-22T09:41:59.512Z,480.90
2018-07-22T09:42:59.576Z,483.70
2018-07-22T09:43:59.614Z,492.70
2018-07-22T09:44:59.656Z,473.50
2018-07-22T09:45:59.685Z,482.40
2018-07-22T09:46:59.751Z,485.30
2018-07-22T09:47:59.811Z,521.30
2018-07-22T09:48:59.810Z,492.80
2018-07-22T09:49:59.859Z,479.50
2018-07-22T09:50:59.890Z,525.10
2018-07-22T09:52:00.138Z,491.20
2018-07-22T09:52:59.975Z,485.60
2018-07-22T09:54:00.010Z,479.20
2018-07-22T09:55:00.069Z,466.00
2018-07-22T09:56:00.090Z,493.20
2018-07-22T09:57:00.137Z,470.60
2018-07-22T09:58:00.184Z,483.10
2018-07-22T09:59:00.242Z,690.60
2018-07-22T10:00:00.270Z,537.80
2018-07-22T10:01:00.302Z,452.20
2018-07-22T10:02:00.393Z,477.00
2018-07-22T10:03:00.391Z,491.00
2018-07-22T10:04:00.473Z,511.50
2018-07-22T10:05:00.484Z,447.50
2018-07-22T10:06:00.534Z,441.20
2018-07-22T10:07:00.580Z,453.10
2018-07-22T10:08:00.842Z,407.90
2018-07-22T10:09:00.702Z,517.80
2018-07-22T10:10:00.690Z,454.60
2018-07-22T10:11:00.749Z,452.30
2018-07-22T10:12:00.815Z,382.80
2018-07-22T10:13:00.834Z,469.80
2018-07-22T10:14:00.859Z,437.30
2018-07-22T10:15:00.946Z,471.10
2018-07-22T10:16:00.973Z,458.10
2018-07-22T10:17:00.998Z,471.10
2018-07-22T10:18:01.043Z,471.70
2018-07-22T10:19:01.064Z,471.00
2018-07-22T10:20:01.129Z,480.70
2018-07-22T10:21:01.143Z,477.60
2018-07-22T10:22:01.196Z,464.10
2018-07-22T10:23:01.450Z,464.30
2018-07-22T10:24:01.296Z,527.80
2018-07-22T10:25:01.347Z,440.70
2018-07-22T10:26:01.391Z,468.10
2018-07-22T10:27:01.426Z,463.20
2018-07-22T10:28:01.455Z,552.60
2018-07-22T10:29:01.518Z,482.80
2018-07-22T10:30:01.553Z,457.10
2018-07-22T10:31:01.595Z,447.50
2018-07-22T10:32:01.617Z,588.40
2018-07-22T10:33:01.665Z,432.50
2018-07-22T10:34:01.907Z,451.00
2018-07-22T10:35:01.790Z,453.60
2018-07-22T10:36:01.801Z,438.90
2018-07-22T10:37:01.825Z,429.50
2018-07-22T10:38:01.889Z,448.40
2018-07-22T10:39:01.986Z,454.20
2018-07-22T10:40:01.969Z,446.00
2018-07-22T10:41:02.060Z,429.90
2018-07-22T10:42:02.062Z,460.90
2018-07-22T10:43:02.141Z,417.40
2018-07-22T10:44:02.155Z,403.50
2018-07-22T10:45:02.176Z,449.80
2018-07-22T10:46:02.203Z,397.60
2018-07-22T10:47:02.277Z,436.30
2018-07-22T10:48:02.311Z,427.90
2018-07-22T10:49:02.360Z,421.30
2018-07-22T10:50:02.658Z,433.00
2018-07-22T10:51:02.429Z,425.80
2018-07-22T10:52:02.466Z,462.40
2018-07-22T10:53:02.515Z,425.80
2018-07-22T10:54:02.573Z,433.10
2018-07-22T10:55:02.634Z,319.20
2018-07-22T10:56:02.698Z,356.40
2018-07-22T10:57:02.689Z,364.20
2018-07-22T10:58:02.734Z,389.90
2018-07-22T10:59:02.781Z,390.20
2018-07-22T11:00:02.812Z,369.80
2018-07-22T11:01:03.105Z,368.70
2018-07-22T11:02:02.921Z,366.40
2018-07-22T11:03:02.964Z,396.60
2018-07-22T11:04:02.975Z,363.50
2018-07-22T11:05:03.058Z,369.10
2018-07-22T11:06:03.142Z,356.90
2018-07-22T11:07:03.148Z,347.60
2018-07-22T11:08:03.199Z,374.40
2018-07-22T11:09:03.223Z,353.40
2018-07-22T11:10:03.298Z,343.20
2018-07-22T11:11:03.309Z,367.30
2018-07-22T11:12:03.352Z,432.00
2018-07-22T11:13:03.394Z,343.10
2018-07-22T11:14:03.427Z,357.90
2018-07-22T11:15:03.471Z,344.50
2018-07-22T11:16:03.552Z,358.30
2018-07-22T11:17:03.561Z,359.80
2018-07-22T11:18:03.602Z,527.30
2018-07-22T11:19:03.642Z,385.50
2018-07-22T11:20:03.685Z,409.20
2018-07-22T11:21:03.782Z,380.30
2018-07-22T11:22:03.758Z,357.10
2018-07-22T11:23:03.814Z,403.80
2018-07-22T11:24:03.875Z,397.40
2018-07-22T11:25:03.900Z,361.20
2018-07-22T11:26:03.965Z,350.00
2018-07-22T11:27:04.254Z,393.30
2018-07-22T11:28:04.049Z,378.20
2018-07-22T11:29:04.109Z,382.50
2018-07-22T11:30:04.138Z,409.70
2018-07-22T11:31:04.179Z,421.90
2018-07-22T11:32:04.209Z,406.30
2018-07-22T11:33:04.256Z,436.50
2018-07-22T11:34:04.296Z,431.00
2018-07-22T11:35:04.367Z,432.40
2018-07-22T11:36:04.439Z,456.00
2018-07-22T11:37:04.426Z,387.80
2018-07-22T11:38:04.484Z,313.30
2018-07-22T11:39:04.525Z,448.20
2018-07-22T11:40:04.558Z,416.10
2018-07-22T11:41:04.605Z,491.90
2018-07-22T11:42:04.634Z,431.20
2018-07-22T11:43:04.696Z,261.50
2018-07-22T11:44:04.799Z,457.00
2018-07-22T11:45:04.795Z,922.60
2018-07-22T11:46:05.040Z,393.20
2018-07-22T11:47:04.855Z,350.40
2018-07-22T11:48:04.934Z,380.60
2018-07-22T11:49:04.973Z,385.10
2018-07-22T11:50:04.992Z,396.80
2018-07-22T11:51:05.030Z,361.10
2018-07-22T11:52:05.108Z,342.90
2018-07-22T11:53:05.144Z,360.90
2018-07-22T11:54:05.181Z,340.60
2018-07-22T11:55:05.205Z,341.20
2018-07-22T11:56:05.291Z,300.30
2018-07-22T11:57:05.300Z,285.80
2018-07-22T11:58:05.339Z,283.50
2018-07-22T11:59:05.437Z,250.80
2018-07-22T12:00:05.497Z,226.60
2018-07-22T12:01:05.494Z,231.00
2018-07-22T12:02:05.531Z,240.40
2018-07-22T12:03:05.612Z,234.60
2018-07-22T12:04:05.650Z,199.90
2018-07-22T12:05:05.668Z,209.60
2018-07-22T12:06:05.729Z,172.20
2018-07-22T12:07:05.767Z,207.20
2018-07-22T12:08:05.815Z,170.40
2018-07-22T12:09:05.831Z,175.50
2018-07-22T12:10:05.947Z,155.30
2018-07-22T12:11:05.964Z,185.20
2018-07-22T12:12:06.022Z,165.30
2018-07-22T12:13:06.026Z,170.70
2018-07-22T12:14:06.088Z,187.50
2018-07-22T12:15:06.166Z,130.10
2018-07-22T12:16:06.186Z,157.60
2018-07-22T12:17:06.212Z,158.70
2018-07-22T12:18:06.267Z,160.60
2018-07-22T12:19:06.316Z,175.70
2018-07-22T12:20:06.362Z,409.50
2018-07-22T12:21:06.372Z,187.60
2018-07-22T12:22:06.421Z,190.20
2018-07-22T12:23:06.746Z,177.60
2018-07-22T12:24:06.524Z,186.60
2018-07-22T12:25:06.592Z,181.60
2018-07-22T12:26:06.674Z,189.30
2018-07-22T12:27:06.698Z,178.80
2018-07-22T12:28:06.744Z,181.30
2018-07-22T12:29:06.783Z,186.60